createdAt,value
2022-11-28T00:03:26.155Z,4.74
2022-11-28T00:08:26.133Z,4.67
2022-11-28T00:13:26.122Z,4.59
2022-11-28T00:23:26.579Z,4.64
2022-11-28T00:28:26.158Z,4.72
2022-11-28T00:38:26.390Z,4.86
2022-11-28T00:43:26.285Z,4.84
2022-11-28T00:48:26.127Z,4.91
2022-11-28T00:53:26.158Z,4.79
2022-11-28T00:58:26.164Z,4.94
2022-11-28T01:03:26.124Z,5.07
2022-11-28T01:08:26.154Z,4.99
2022-11-28T01:13:26.115Z,4.89
2022-11-28T01:18:26.155Z,4.91
2022-11-28T01:23:26.132Z,5.03
2022-11-28T01:28:26.164Z,5.09
2022-11-28T01:33:26.496Z,5.03
2022-11-28T01:38:26.122Z,5.00
2022-11-28T01:43:26.214Z,4.92
2022-11-28T01:48:27.280Z,4.90
2022-11-28T01:53:26.169Z,4.79
2022-11-28T01:58:26.188Z,4.75
2022-11-28T02:03:26.131Z,4.74
2022-11-28T02:08:26.176Z,4.71
2022-11-28T02:13:26.162Z,4.66
2022-11-28T02:18:26.140Z,4.68
2022-11-28T02:23:26.237Z,4.70
2022-11-28T02:28:26.195Z,4.68
2022-11-28T02:33:26.159Z,4.64
2022-11-28T02:38:26.189Z,4.66
2022-11-28T02:43:26.248Z,4.65
2022-11-28T02:48:26.164Z,4.58
2022-11-28T02:53:26.180Z,4.57
2022-11-28T02:58:26.193Z,4.51
2022-11-28T03:03:26.275Z,4.56
2022-11-28T03:08:26.168Z,4.69
2022-11-28T03:13:26.200Z,4.64
2022-11-28T03:18:26.238Z,4.56
2022-11-28T03:23:26.184Z,4.62
2022-11-28T03:28:26.177Z,4.54
2022-11-28T03:33:26.194Z,4.61
2022-11-28T03:38:26.185Z,4.46
2022-11-28T03:43:26.360Z,4.33
2022-11-28T03:48:26.187Z,4.32
2022-11-28T03:53:26.206Z,4.30
2022-11-28T03:58:26.167Z,4.31
2022-11-28T04:03:26.328Z,4.34
2022-11-28T04:08:26.233Z,4.33
2022-11-28T04:13:26.194Z,4.31
2022-11-28T04:18:26.261Z,4.37
2022-11-28T04:23:26.238Z,4.34
2022-11-28T04:28:26.222Z,4.29
2022-11-28T04:33:26.220Z,4.31
2022-11-28T04:38:26.228Z,4.24
2022-11-28T04:43:26.232Z,4.12
2022-11-28T04:48:31.202Z,4.22
2022-11-28T04:53:26.460Z,4.21
2022-11-28T04:58:26.542Z,4.12
2022-11-28T05:03:26.196Z,4.10
2022-11-28T05:08:26.253Z,4.08
2022-11-28T05:13:26.227Z,4.07
2022-11-28T05:18:26.214Z,3.98
2022-11-28T05:23:26.243Z,3.94
2022-11-28T05:28:26.225Z,3.96
2022-11-28T05:33:26.240Z,4.03
2022-11-28T05:38:26.273Z,4.08
2022-11-28T05:43:26.260Z,4.10
2022-11-28T05:48:26.226Z,4.06
2022-11-28T05:53:26.364Z,3.98
2022-11-28T05:58:26.220Z,4.03
2022-11-28T06:03:26.311Z,4.09
2022-11-28T06:08:26.385Z,3.95
2022-11-28T06:13:26.240Z,3.86
2022-11-28T06:18:26.274Z,3.87
2022-11-28T06:23:26.452Z,3.80
2022-11-28T06:28:26.287Z,3.78
2022-11-28T06:33:26.262Z,3.79
2022-11-28T06:38:26.259Z,3.77
2022-11-28T06:43:26.276Z,3.79
2022-11-28T06:48:26.269Z,3.81
2022-11-28T06:53:31.337Z,3.86
2022-11-28T06:58:26.287Z,3.77
2022-11-28T07:03:26.226Z,3.82
2022-11-28T07:08:26.355Z,3.81
2022-11-28T07:13:26.298Z,3.82
2022-11-28T07:18:26.240Z,3.91
2022-11-28T07:23:26.285Z,3.88
2022-11-28T07:28:26.303Z,3.93
2022-11-28T07:33:26.258Z,3.92
2022-11-28T07:38:26.308Z,3.99
2022-11-28T07:43:26.323Z,3.97
2022-11-28T07:48:26.257Z,4.22
2022-11-28T07:53:26.308Z,4.33
2022-11-28T07:58:26.328Z,4.44
2022-11-28T08:03:26.302Z,4.36
2022-11-28T08:08:26.345Z,4.25
2022-11-28T08:13:26.277Z,4.42
2022-11-28T08:18:26.332Z,4.54
2022-11-28T08:23:26.342Z,4.53
2022-11-28T08:28:26.554Z,4.64
2022-11-28T08:33:26.280Z,4.71
2022-11-28T08:38:26.323Z,4.68
2022-11-28T08:43:26.337Z,4.57
2022-11-28T08:48:26.322Z,4.63
2022-11-28T08:53:26.286Z,4.50
2022-11-28T08:58:26.322Z,4.47
2022-11-28T09:03:26.404Z,4.51
2022-11-28T09:08:26.427Z,4.44
2022-11-28T09:13:26.319Z,4.64
2022-11-28T09:18:26.324Z,4.74
2022-11-28T09:23:26.351Z,4.51
2022-11-28T09:33:26.353Z,4.53
2022-11-28T09:38:26.447Z,4.52
2022-11-28T09:48:26.356Z,4.46
2022-11-28T09:53:26.391Z,4.44
2022-11-28T09:58:26.346Z,4.57
2022-11-28T10:03:26.649Z,4.36
2022-11-28T10:08:26.353Z,4.28
2022-11-28T10:13:32.649Z,4.36
2022-11-28T10:23:26.660Z,4.40
2022-11-28T10:28:26.357Z,4.46
2022-11-28T10:33:26.348Z,4.45
2022-11-28T10:38:26.339Z,4.55
2022-11-28T10:43:26.373Z,4.44
2022-11-28T10:53:26.565Z,4.43
2022-11-28T10:58:26.367Z,4.37
2022-11-28T11:08:26.817Z,4.39
2022-11-28T11:13:26.358Z,4.44
2022-11-28T11:18:26.399Z,4.53
2022-11-28T11:23:26.348Z,4.81
2022-11-28T11:28:26.367Z,4.79
2022-11-28T11:33:26.383Z,4.73
2022-11-28T11:38:26.358Z,4.64
2022-11-28T11:43:26.371Z,4.63
2022-11-28T11:48:26.408Z,4.72
2022-11-28T11:53:26.358Z,4.46
2022-11-28T11:58:26.478Z,4.42
2022-11-28T12:03:26.569Z,4.51
2022-11-28T12:08:26.397Z,4.49
2022-11-28T12:13:26.361Z,4.53
2022-11-28T12:18:26.462Z,4.58
2022-11-28T12:28:26.438Z,4.68
2022-11-28T12:33:26.413Z,4.63
2022-11-28T12:38:26.412Z,4.62
2022-11-28T12:43:26.451Z,4.68
2022-11-28T12:48:26.403Z,4.55
2022-11-28T12:53:26.418Z,4.66
2022-11-28T12:58:26.417Z,4.69
2022-11-28T13:03:26.465Z,4.77
2022-11-28T13:08:26.417Z,4.82
2022-11-28T13:13:26.412Z,4.84
2022-11-28T13:18:26.404Z,4.89
2022-11-28T13:23:26.462Z,4.90
2022-11-28T13:28:26.420Z,4.79
2022-11-28T13:33:26.654Z,4.78
2022-11-28T13:38:35.999Z,4.90
2022-11-28T13:43:26.431Z,4.88
2022-11-28T13:48:49.707Z,4.74
2022-11-28T13:53:26.448Z,4.67
2022-11-28T13:58:28.375Z,4.68
2022-11-28T14:03:26.492Z,4.67
2022-11-28T14:08:26.435Z,4.69
2022-11-28T14:13:26.623Z,4.68
2022-11-28T14:18:55.143Z,4.62
2022-11-28T14:23:26.428Z,4.56
2022-11-28T14:28:26.447Z,4.47
2022-11-28T14:33:26.447Z,4.37
2022-11-28T14:38:26.466Z,4.27
2022-11-28T14:43:26.469Z,4.18
2022-11-28T14:48:26.465Z,4.10
2022-11-28T14:53:26.470Z,4.02
2022-11-28T14:58:26.511Z,3.91
2022-11-28T15:03:26.572Z,3.80
2022-11-28T15:08:26.482Z,3.70
2022-11-28T15:13:26.449Z,3.64
2022-11-28T15:18:26.478Z,3.55
2022-11-28T15:23:26.467Z,3.53
2022-11-28T15:28:26.468Z,3.45
2022-11-28T15:33:26.427Z,3.30
2022-11-28T15:38:26.459Z,3.27
2022-11-28T15:43:26.490Z,3.29
2022-11-28T15:48:26.518Z,3.25
2022-11-28T15:53:26.508Z,3.20
2022-11-28T15:58:26.692Z,3.04
2022-11-28T16:03:26.448Z,2.85
2022-11-28T16:08:26.687Z,2.76
2022-11-28T16:13:26.558Z,2.64
2022-11-28T16:18:26.499Z,2.55
2022-11-28T16:23:26.483Z,2.53
2022-11-28T16:28:26.674Z,2.54
2022-11-28T16:33:26.722Z,2.46
2022-11-28T16:38:26.533Z,2.41
2022-11-28T16:43:26.562Z,2.39
2022-11-28T16:48:26.536Z,2.31
2022-11-28T16:53:26.518Z,2.24
2022-11-28T16:58:26.519Z,2.17
2022-11-28T17:03:26.785Z,2.12
2022-11-28T17:08:30.394Z,2.24
2022-11-28T17:13:26.752Z,2.18
2022-11-28T17:18:26.678Z,2.31
2022-11-28T17:23:26.701Z,2.20
2022-11-28T17:28:29.217Z,2.27
2022-11-28T17:33:28.034Z,2.21
2022-11-28T17:38:26.773Z,2.27
2022-11-28T17:43:27.393Z,2.23
2022-11-28T17:48:26.751Z,2.24
2022-11-28T17:53:26.738Z,2.22
2022-11-28T18:03:26.561Z,2.04
2022-11-28T18:08:26.500Z,2.01
2022-11-28T18:13:26.696Z,2.13
2022-11-28T18:18:26.793Z,2.12
2022-11-28T18:23:26.804Z,1.93
2022-11-28T18:28:26.701Z,1.91
2022-11-28T18:33:27.331Z,1.82
2022-11-28T18:38:27.118Z,1.60
2022-11-28T18:43:26.564Z,1.88
2022-11-28T18:48:26.801Z,1.93
2022-11-28T18:53:26.545Z,1.86
2022-11-28T18:58:26.817Z,1.72
2022-11-28T19:03:26.519Z,1.80
2022-11-28T19:08:27.218Z,1.85
2022-11-28T19:13:26.804Z,1.60
2022-11-28T19:18:27.503Z,1.51
2022-11-28T19:23:26.868Z,1.39
2022-11-28T19:28:26.543Z,1.46
2022-11-28T19:33:26.616Z,1.55
2022-11-28T19:38:27.778Z,1.42
2022-11-28T19:43:26.604Z,1.40
2022-11-28T19:48:26.835Z,1.53
2022-11-28T19:53:26.912Z,1.55
2022-11-28T19:58:26.808Z,1.53
2022-11-28T20:03:27.139Z,1.25
2022-11-28T20:08:27.867Z,1.15
2022-11-28T20:13:26.808Z,1.11
2022-11-28T20:18:26.846Z,1.13
2022-11-28T20:23:27.641Z,1.00
2022-11-28T20:28:26.813Z,1.08
2022-11-28T20:33:26.568Z,1.12
2022-11-28T20:38:26.788Z,1.10
2022-11-28T20:43:26.850Z,1.19
2022-11-28T20:48:26.771Z,0.96
2022-11-28T20:53:27.148Z,1.22
2022-11-28T20:58:26.771Z,1.27
2022-11-28T21:03:26.842Z,1.43
2022-11-28T21:08:27.426Z,1.59
2022-11-28T21:13:26.697Z,1.71
2022-11-28T21:18:26.850Z,1.73
2022-11-28T21:23:26.842Z,1.79
2022-11-28T21:28:26.619Z,1.91
2022-11-28T21:33:26.616Z,2.05
2022-11-28T21:38:26.695Z,2.14
2022-11-28T21:43:26.582Z,2.23
2022-11-28T21:48:26.605Z,2.12
2022-11-28T21:53:26.616Z,2.13
2022-11-28T21:58:26.986Z,2.12
2022-11-28T22:03:26.755Z,1.89
2022-11-28T22:08:26.593Z,2.23
2022-11-28T22:13:26.597Z,2.25
2022-11-28T22:18:26.609Z,2.26
2022-11-28T22:23:26.653Z,2.37
2022-11-28T22:28:26.691Z,2.29
2022-11-28T22:33:26.605Z,2.49
2022-11-28T22:38:26.634Z,2.42
2022-11-28T22:43:26.633Z,2.55
2022-11-28T22:48:26.618Z,2.52
2022-11-28T22:53:26.642Z,2.65
2022-11-28T22:58:26.619Z,2.68
2022-11-28T23:08:26.644Z,2.39
2022-11-28T23:13:26.646Z,2.38
2022-11-28T23:18:26.624Z,2.27
2022-11-28T23:23:26.609Z,2.15
2022-11-28T23:28:26.642Z,2.29
2022-11-28T23:33:26.643Z,2.41
2022-11-28T23:38:26.660Z,2.35
2022-11-28T23:43:26.643Z,2.31
2022-11-28T23:48:26.939Z,2.33
2022-11-28T23:53:26.653Z,2.23
2022-11-28T23:58:26.658Z,2.28
